Time;durP1;ratioP1;P1;durP2;ratioP2;P2;SDS_P1;SDS_P2;PMS_P1;PMS_P2;Temp;Humidity;BMP_temperature;BMP_pressure;BME280_temperature;BME280_humidity;BME280_pressure;Samples;Min_cycle;Max_cycle;Signal;HPM_P1;HPM_P2
2022/09/25 07:59:30;;;;;;;19.00;10.07;;;;;;;;;;4927317;28;20596;-78
2022/09/25 08:01:58;;;;;;;19.57;10.93;;;;;;;;;;4927941;29;20211;-77
2022/09/25 08:12:26;;;;;;;21.23;10.77;;;;;;;;;;5741455;23;20238;-81
2022/09/25 08:14:56;;;;;;;16.67;9.43;;;;;;;;;;4947955;28;20241;-81
2022/09/25 08:17:30;;;;;;;21.67;10.07;;;;;;;;;;4947087;29;20202;-81
2022/09/25 08:19:58;;;;;;;18.07;9.67;;;;;;;;;;4951934;29;20608;-81
2022/09/25 08:22:25;;;;;;;21.57;11.03;;;;;;;;;;4947144;28;20258;-82
2022/09/25 08:24:53;;;;;;;27.40;14.23;;;;;;;;;;4946260;28;20230;-82
2022/09/25 08:27:22;;;;;;;27.93;12.20;;;;;;;;;;4945266;28;20230;-83
2022/09/25 08:29:50;;;;;;;23.87;11.57;;;;;;;;;;4943138;29;20206;-82
2022/09/25 08:32:20;;;;;;;24.40;12.70;;;;;;;;;;4942734;28;20210;-81
2022/09/25 08:34:49;;;;;;;22.37;9.73;;;;;;;;;;4946248;28;20612;-83
2022/09/25 08:37:18;;;;;;;21.57;9.70;;;;;;;;;;4941183;28;20238;-83
2022/09/25 08:39:45;;;;;;;19.60;10.27;;;;;;;;;;4942951;28;20705;-80
2022/09/25 08:42:17;;;;;;;23.07;10.07;;;;;;;;;;4942554;28;20222;-83
2022/09/25 08:44:46;;;;;;;18.00;9.90;;;;;;;;;;4945419;28;20286;-82
2022/09/25 08:50:11;;;;;;;19.80;9.37;;;;;;;;;;4941943;28;20210;-81
2022/09/25 08:52:41;;;;;;;23.50;10.17;;;;;;;;;;4939671;28;20212;-81
2022/09/25 08:57:54;;;;;;;18.27;9.40;;;;;;;;;;4949813;28;20201;-82
2022/09/25 09:00:23;;;;;;;19.27;9.77;;;;;;;;;;4946595;28;20206;-82
2022/09/25 09:02:53;;;;;;;20.73;10.87;;;;;;;;;;4946504;28;20218;-82
2022/09/25 09:05:23;;;;;;;19.97;9.80;;;;;;;;;;4945335;28;20231;-82
2022/09/25 09:08:03;;;;;;;21.50;9.83;;;;;;;;;;4945735;29;20776;-85
2022/09/25 09:10:35;;;;;;;19.90;10.40;;;;;;;;;;4947160;29;20211;-83
2022/09/25 09:13:07;;;;;;;20.30;9.97;;;;;;;;;;4948362;29;20233;-82
2022/09/25 09:15:38;;;;;;;17.73;8.90;;;;;;;;;;4944237;28;20249;-84
2022/09/25 09:18:15;;;;;;;14.57;8.00;;;;;;;;;;4948157;28;20680;-84
2022/09/25 09:20:49;;;;;;;18.03;8.47;;;;;;;;;;4960823;28;20210;-84
2022/09/25 09:23:21;;;;;;;17.50;8.67;;;;;;;;;;4946707;28;20670;-84
2022/09/25 09:25:56;;;;;;;14.77;7.83;;;;;;;;;;4950861;28;20867;-83
2022/09/25 09:28:37;;;;;;;14.73;8.60;;;;;;;;;;4948035;28;20233;-85
2022/09/25 09:31:20;;;;;;;17.63;8.77;;;;;;;;;;4947026;29;20202;-85
2022/09/25 09:33:52;;;;;;;15.97;7.53;;;;;;;;;;4943062;29;20225;-85
2022/09/25 09:36:26;;;;;;;16.13;8.20;;;;;;;;;;4939398;28;20234;-86
2022/09/25 09:39:00;;;;;;;18.23;7.63;;;;;;;;;;4944762;28;20430;-84
2022/09/25 09:41:39;;;;;;;13.70;6.40;;;;;;;;;;4942128;29;20206;-83
2022/09/25 09:44:29;;;;;;;15.23;6.90;;;;;;;;;;4946031;29;20730;-84
2022/09/25 09:47:03;;;;;;;14.87;7.33;;;;;;;;;;4945301;29;20211;-85
2022/09/25 09:49:38;;;;;;;12.20;6.90;;;;;;;;;;4945239;29;20608;-86
2022/09/25 09:52:13;;;;;;;16.03;6.57;;;;;;;;;;4941915;28;20220;-86
2022/09/25 09:54:44;;;;;;;13.67;6.43;;;;;;;;;;4946800;28;20236;-87
2022/09/25 09:57:16;;;;;;;11.47;5.67;;;;;;;;;;4950841;28;20221;-86
2022/09/25 09:59:47;;;;;;;16.43;6.20;;;;;;;;;;4946450;28;20210;-86
2022/09/25 10:02:19;;;;;;;9.63;5.80;;;;;;;;;;4941744;29;20218;-85
2022/09/25 10:04:49;;;;;;;17.10;6.40;;;;;;;;;;4944642;29;20309;-85
2022/09/25 10:07:21;;;;;;;13.53;5.60;;;;;;;;;;4944099;29;20213;-86
2022/09/25 10:09:50;;;;;;;13.23;5.83;;;;;;;;;;4947613;29;20222;-85
2022/09/25 10:12:24;;;;;;;13.37;5.07;;;;;;;;;;4948391;29;20214;-85
2022/09/25 10:14:55;;;;;;;9.20;5.17;;;;;;;;;;4943926;28;20230;-84
2022/09/25 10:17:23;;;;;;;11.30;4.70;;;;;;;;;;4943908;28;20206;-81
2022/09/25 10:19:53;;;;;;;12.77;4.70;;;;;;;;;;4942406;28;20217;-82
2022/09/25 10:22:26;;;;;;;9.83;4.33;;;;;;;;;;4944100;29;20254;-82
2022/09/25 10:25:06;;;;;;;10.53;4.20;;;;;;;;;;4941588;28;20225;-80
2022/09/25 10:27:35;;;;;;;11.00;4.20;;;;;;;;;;4946898;29;20243;-80
2022/09/25 10:30:04;;;;;;;7.40;4.23;;;;;;;;;;4947244;29;20206;-83
2022/09/25 10:32:33;;;;;;;8.63;3.33;;;;;;;;;;4944129;29;20451;-84
2022/09/25 10:35:01;;;;;;;9.27;3.73;;;;;;;;;;5019017;23;20233;-83
2022/09/25 10:37:33;;;;;;;8.03;3.40;;;;;;;;;;4962784;28;20731;-82
2022/09/25 10:40:02;;;;;;;8.17;3.23;;;;;;;;;;4960470;28;20209;-82
2022/09/25 10:42:36;;;;;;;12.33;3.70;;;;;;;;;;4963031;28;20212;-82
2022/09/25 10:45:30;;;;;;;7.23;2.93;;;;;;;;;;4963332;28;20226;-83
2022/09/25 10:50:44;;;;;;;7.00;2.70;;;;;;;;;;4964038;28;20578;-84
2022/09/25 10:53:31;;;;;;;5.17;2.30;;;;;;;;;;4960154;28;20206;-84
2022/09/25 10:56:03;;;;;;;3.90;2.30;;;;;;;;;;4959338;28;20232;-84
2022/09/25 10:58:33;;;;;;;7.43;2.10;;;;;;;;;;4964200;28;20270;-83
2022/09/25 11:01:03;;;;;;;10.67;2.47;;;;;;;;;;4959162;28;20292;-85
2022/09/25 11:03:33;;;;;;;5.97;1.90;;;;;;;;;;4963824;28;20214;-85
2022/09/25 11:06:07;;;;;;;6.57;2.10;;;;;;;;;;4968849;28;20249;-83
2022/09/25 11:08:57;;;;;;;8.70;1.90;;;;;;;;;;4981718;28;20225;-84
2022/09/25 11:11:26;;;;;;;5.37;2.17;;;;;;;;;;4991769;28;20225;-82
2022/09/25 11:13:55;;;;;;;9.33;2.83;;;;;;;;;;4989056;28;20201;-84
2022/09/25 11:16:42;;;;;;;5.07;2.30;;;;;;;;;;4991842;28;20229;-83
2022/09/25 11:19:13;;;;;;;7.30;2.50;;;;;;;;;;4972937;28;20212;-83
2022/09/25 11:21:56;;;;;;;10.37;3.40;;;;;;;;;;4972713;28;20212;-85
2022/09/25 11:24:36;;;;;;;9.27;2.80;;;;;;;;;;4968029;28;20287;-85
2022/09/25 11:27:09;;;;;;;6.50;2.63;;;;;;;;;;4965560;28;20295;-85
2022/09/25 11:29:54;;;;;;;11.40;3.20;;;;;;;;;;4968422;28;20317;-87
2022/09/25 11:32:26;;;;;;;8.23;3.00;;;;;;;;;;4969819;28;20228;-84
2022/09/25 11:35:07;;;;;;;12.63;2.70;;;;;;;;;;4972032;28;20284;-87
2022/09/25 11:37:38;;;;;;;6.00;2.77;;;;;;;;;;4968014;28;20214;-85
2022/09/25 11:43:05;;;;;;;11.23;2.60;;;;;;;;;;4970302;28;20332;-84
2022/09/25 11:45:35;;;;;;;6.13;2.57;;;;;;;;;;4967134;28;20244;-84
2022/09/25 11:48:06;;;;;;;11.90;2.53;;;;;;;;;;4968387;28;20209;-84
2022/09/25 11:50:39;;;;;;;6.67;2.80;;;;;;;;;;4970072;28;20202;-82
2022/09/25 11:53:12;;;;;;;8.63;2.40;;;;;;;;;;4967782;28;20210;-84
2022/09/25 11:55:50;;;;;;;10.93;2.33;;;;;;;;;;4967583;28;20238;-85
2022/09/25 11:58:28;;;;;;;6.03;2.40;;;;;;;;;;4966760;28;20801;-84
2022/09/25 12:01:01;;;;;;;5.10;1.87;;;;;;;;;;4966591;28;20222;-82
2022/09/25 12:03:35;;;;;;;7.03;1.93;;;;;;;;;;4968880;28;20212;-83
2022/09/25 12:06:13;;;;;;;7.00;2.57;;;;;;;;;;4963923;28;20281;-82
2022/09/25 12:08:49;;;;;;;8.43;2.00;;;;;;;;;;4962770;28;20217;-87
2022/09/25 12:11:23;;;;;;;10.33;1.90;;;;;;;;;;4964819;28;20972;-83
2022/09/25 12:13:55;;;;;;;9.63;1.83;;;;;;;;;;4966632;28;20214;-84
2022/09/25 12:16:25;;;;;;;6.23;1.73;;;;;;;;;;4966092;28;20233;-84
2022/09/25 12:19:08;;;;;;;8.10;2.07;;;;;;;;;;4965406;28;20243;-82
2022/09/25 12:21:40;;;;;;;5.03;2.00;;;;;;;;;;4963893;28;20264;-82
2022/09/25 12:27:02;;;;;;;5.60;1.93;;;;;;;;;;4957813;28;20300;-84
2022/09/25 12:29:38;;;;;;;6.00;1.83;;;;;;;;;;4965157;28;20707;-83
2022/09/25 12:32:15;;;;;;;7.60;1.87;;;;;;;;;;4964698;28;20213;-85
2022/09/25 12:34:54;;;;;;;9.13;2.20;;;;;;;;;;4966078;28;20288;-84
2022/09/25 12:37:27;;;;;;;9.03;2.10;;;;;;;;;;4962506;28;20209;-85
2022/09/25 12:39:57;;;;;;;9.37;1.80;;;;;;;;;;4967195;28;20202;-84
2022/09/25 12:42:30;;;;;;;11.43;2.33;;;;;;;;;;4967967;28;20579;-83
2022/09/25 12:45:00;;;;;;;4.00;1.60;;;;;;;;;;4968339;28;20766;-86
2022/09/25 12:47:31;;;;;;;7.53;1.70;;;;;;;;;;4965233;28;20210;-88
2022/09/25 12:50:05;;;;;;;7.20;1.93;;;;;;;;;;4970060;28;20222;-84
2022/09/25 12:52:36;;;;;;;8.80;2.37;;;;;;;;;;4968847;28;20209;-85
2022/09/25 12:55:08;;;;;;;8.93;2.13;;;;;;;;;;4964531;28;20244;-85
2022/09/25 12:57:40;;;;;;;5.97;1.53;;;;;;;;;;4961887;28;20241;-84
2022/09/25 13:00:24;;;;;;;3.47;1.47;;;;;;;;;;4963182;28;20206;-86
2022/09/25 13:02:54;;;;;;;7.77;1.70;;;;;;;;;;4961415;28;20285;-83
2022/09/25 13:05:25;;;;;;;5.73;1.50;;;;;;;;;;4962799;28;20232;-83
2022/09/25 13:07:54;;;;;;;7.10;1.70;;;;;;;;;;4964831;28;20202;-85
2022/09/25 13:10:26;;;;;;;6.87;1.50;;;;;;;;;;4968546;28;20566;-88
2022/09/25 13:12:56;;;;;;;5.20;1.63;;;;;;;;;;4964683;28;20205;-83
2022/09/25 13:15:25;;;;;;;5.77;1.47;;;;;;;;;;4965871;28;20316;-87
2022/09/25 13:20:48;;;;;;;5.63;1.57;;;;;;;;;;4966609;28;20210;-84
2022/09/25 13:23:17;;;;;;;7.73;2.00;;;;;;;;;;4969993;28;20210;-83
2022/09/25 13:25:47;;;;;;;10.00;1.63;;;;;;;;;;4965805;28;20313;-84
2022/09/25 13:28:20;;;;;;;7.07;1.43;;;;;;;;;;4967476;28;20214;-82
2022/09/25 13:31:05;;;;;;;5.70;2.20;;;;;;;;;;4970712;28;20225;-85
2022/09/25 13:33:34;;;;;;;4.73;1.67;;;;;;;;;;4968980;28;20213;-82
2022/09/25 13:36:10;;;;;;;5.83;1.43;;;;;;;;;;4965853;28;20335;-84
2022/09/25 13:41:28;;;;;;;9.77;1.67;;;;;;;;;;4962688;28;20209;-85
2022/09/25 13:44:11;;;;;;;4.40;1.33;;;;;;;;;;4959712;28;20301;-84
2022/09/25 13:46:39;;;;;;;4.13;1.10;;;;;;;;;;4959279;28;20202;-85
2022/09/25 13:49:24;;;;;;;4.73;1.10;;;;;;;;;;4960733;28;20233;-83
2022/09/25 13:51:51;;;;;;;13.43;1.40;;;;;;;;;;4961074;28;20220;-84
2022/09/25 13:54:26;;;;;;;6.73;1.43;;;;;;;;;;4961574;28;20210;-85
2022/09/25 13:56:56;;;;;;;6.97;1.60;;;;;;;;;;4962954;28;20205;-85
2022/09/25 13:59:35;;;;;;;7.20;1.20;;;;;;;;;;4961989;28;20221;-84
2022/09/25 14:02:21;;;;;;;5.97;1.40;;;;;;;;;;4959917;28;20201;-84
2022/09/25 14:04:52;;;;;;;5.20;1.37;;;;;;;;;;4959546;28;20772;-82
2022/09/25 14:07:22;;;;;;;8.10;1.40;;;;;;;;;;4954602;28;20210;-83
2022/09/25 14:09:52;;;;;;;5.00;1.30;;;;;;;;;;4957348;28;20240;-83
2022/09/25 14:12:52;;;;;;;13.30;6.40;;;;;;;;;;4962497;28;20269;-83
2022/09/25 14:15:22;;;;;;;10.07;1.20;;;;;;;;;;4959086;28;20237;-83
2022/09/25 14:17:51;;;;;;;8.00;1.23;;;;;;;;;;4958602;28;20215;-83
2022/09/25 14:20:27;;;;;;;9.20;1.10;;;;;;;;;;4962483;28;20288;-84
2022/09/25 14:22:56;;;;;;;6.20;1.47;;;;;;;;;;4972313;28;20214;-85
2022/09/25 14:25:31;;;;;;;3.33;1.30;;;;;;;;;;4962671;28;20230;-84
2022/09/25 14:27:59;;;;;;;4.70;1.10;;;;;;;;;;4958431;28;20288;-86
2022/09/25 14:30:28;;;;;;;4.23;1.10;;;;;;;;;;4961124;28;20225;-85
2022/09/25 14:33:08;;;;;;;3.40;1.77;;;;;;;;;;4963751;28;20244;-86
2022/09/25 14:35:41;;;;;;;6.30;1.30;;;;;;;;;;4961397;28;20233;-82
2022/09/25 14:38:34;;;;;;;7.60;1.20;;;;;;;;;;4966884;28;20304;-88
2022/09/25 14:41:09;;;;;;;2.83;1.23;;;;;;;;;;4966328;28;20209;-85
2022/09/25 14:43:51;;;;;;;3.33;1.10;;;;;;;;;;4964419;28;20213;-82
2022/09/25 14:46:26;;;;;;;4.07;0.90;;;;;;;;;;4967789;28;20229;-82
2022/09/25 14:48:57;;;;;;;4.70;1.20;;;;;;;;;;4964309;28;20212;-85
2022/09/25 14:51:28;;;;;;;6.97;1.47;;;;;;;;;;4963693;28;20213;-82
2022/09/25 14:53:59;;;;;;;3.13;0.70;;;;;;;;;;4968261;28;20206;-82
2022/09/25 14:56:27;;;;;;;6.10;1.20;;;;;;;;;;4965888;28;20367;-82
2022/09/25 14:59:00;;;;;;;3.53;0.97;;;;;;;;;;4968374;28;20236;-82
2022/09/25 15:01:36;;;;;;;4.03;1.57;;;;;;;;;;4967444;28;20209;-83
2022/09/25 15:04:05;;;;;;;7.03;1.50;;;;;;;;;;4969574;28;20208;-85
2022/09/25 15:06:35;;;;;;;4.27;1.10;;;;;;;;;;4967217;28;20236;-83
2022/09/25 15:09:19;;;;;;;6.00;1.30;;;;;;;;;;4966284;28;20676;-85
2022/09/25 15:11:54;;;;;;;7.43;1.20;;;;;;;;;;4963445;28;20263;-83
2022/09/25 15:14:22;;;;;;;3.97;0.97;;;;;;;;;;4968769;28;20748;-83
2022/09/25 15:19:38;;;;;;;7.17;1.40;;;;;;;;;;4967863;28;20344;-84
2022/09/25 15:22:19;;;;;;;2.83;0.80;;;;;;;;;;4966055;28;20202;-83
2022/09/25 15:24:49;;;;;;;4.50;1.00;;;;;;;;;;4967232;28;20955;-83
2022/09/25 15:27:17;;;;;;;6.77;1.90;;;;;;;;;;4967775;28;20280;-85
2022/09/25 15:29:48;;;;;;;5.23;1.50;;;;;;;;;;4966842;28;20229;-84
2022/09/25 15:32:19;;;;;;;7.70;2.83;;;;;;;;;;4964640;28;20241;-85
2022/09/25 15:34:47;;;;;;;8.57;2.23;;;;;;;;;;4961859;28;20230;-82
2022/09/25 15:37:25;;;;;;;8.20;2.70;;;;;;;;;;4963546;28;20205;-81
2022/09/25 15:40:13;;;;;;;4.60;1.30;;;;;;;;;;4967040;28;20201;-82
2022/09/25 15:42:46;;;;;;;8.23;1.50;;;;;;;;;;4955704;28;20237;-84
2022/09/25 15:45:36;;;;;;;8.93;1.63;;;;;;;;;;4964776;28;20250;-84
2022/09/25 15:48:09;;;;;;;10.37;3.27;;;;;;;;;;4968769;28;20205;-84
2022/09/25 15:50:37;;;;;;;9.83;3.33;;;;;;;;;;4967304;28;20293;-82
2022/09/25 15:53:06;;;;;;;5.63;1.87;;;;;;;;;;4968190;28;20297;-83
2022/09/25 15:55:33;;;;;;;8.10;2.03;;;;;;;;;;4967270;28;20233;-83
2022/09/25 15:58:07;;;;;;;5.23;1.50;;;;;;;;;;4969321;28;20209;-83
2022/09/25 16:06:13;;;;;;;6.37;1.63;;;;;;;;;;4977148;28;20224;-89
2022/09/25 16:08:50;;;;;;;5.53;1.30;;;;;;;;;;4969393;28;20228;-84
2022/09/25 16:14:33;;;;;;;8.60;1.77;;;;;;;;;;5082740;28;21142;-87
2022/09/25 16:17:02;;;;;;;10.80;2.50;;;;;;;;;;5065734;28;20226;-88
2022/09/25 16:19:31;;;;;;;6.53;2.33;;;;;;;;;;5067250;28;20202;-88
2022/09/25 16:22:13;;;;;;;5.07;1.77;;;;;;;;;;5067961;28;20202;-89
2022/09/25 16:24:43;;;;;;;19.97;5.40;;;;;;;;;;5062386;28;20245;-87
2022/09/25 16:27:22;;;;;;;8.50;3.43;;;;;;;;;;5061216;28;20290;-87
2022/09/25 16:29:49;;;;;;;3.97;1.50;;;;;;;;;;5062652;28;20198;-87
2022/09/25 16:32:19;;;;;;;6.03;2.60;;;;;;;;;;5060786;28;20228;-88
2022/09/25 16:34:56;;;;;;;10.33;2.43;;;;;;;;;;5065143;28;20229;-87
2022/09/25 16:37:28;;;;;;;6.23;2.43;;;;;;;;;;5058440;28;20205;-90
2022/09/25 16:40:23;;;;;;;7.27;2.30;;;;;;;;;;5055529;28;20215;-88
2022/09/25 16:42:51;;;;;;;9.73;2.60;;;;;;;;;;5053414;28;20268;-87
2022/09/25 16:45:21;;;;;;;10.43;3.77;;;;;;;;;;5059213;28;20223;-87
2022/09/25 16:47:50;;;;;;;7.83;3.60;;;;;;;;;;5056919;28;20265;-87
2022/09/25 16:50:18;;;;;;;6.60;2.40;;;;;;;;;;5053406;28;20210;-88
2022/09/25 16:52:46;;;;;;;7.57;2.33;;;;;;;;;;5056388;28;20254;-86
2022/09/25 16:55:18;;;;;;;10.63;1.80;;;;;;;;;;5062823;28;20727;-86
2022/09/25 16:57:46;;;;;;;10.27;1.57;;;;;;;;;;5060346;28;20206;-89
2022/09/25 17:00:15;;;;;;;5.60;1.30;;;;;;;;;;5056016;28;20242;-88
2022/09/25 17:02:44;;;;;;;3.43;1.27;;;;;;;;;;5060051;28;20199;-88
2022/09/25 17:05:16;;;;;;;3.93;1.27;;;;;;;;;;5055624;28;20237;-87
2022/09/25 17:07:44;;;;;;;3.83;1.40;;;;;;;;;;5053499;28;20265;-91
2022/09/25 17:10:14;;;;;;;6.73;1.30;;;;;;;;;;5059763;28;20214;-87
2022/09/25 17:12:41;;;;;;;7.20;2.13;;;;;;;;;;5053937;28;20226;-88
2022/09/25 17:15:17;;;;;;;2.73;1.70;;;;;;;;;;5057359;28;20227;-88
2022/09/25 17:17:53;;;;;;;7.73;1.53;;;;;;;;;;5060661;28;20214;-88
2022/09/25 17:20:24;;;;;;;6.33;1.80;;;;;;;;;;5053465;28;20206;-88
2022/09/25 17:22:54;;;;;;;3.30;1.50;;;;;;;;;;5055717;28;20256;-87
2022/09/25 17:25:25;;;;;;;5.47;1.87;;;;;;;;;;5043655;28;20219;-89
2022/09/25 17:27:55;;;;;;;6.17;1.90;;;;;;;;;;5040673;28;20258;-86
2022/09/25 17:30:31;;;;;;;12.83;1.87;;;;;;;;;;5044141;28;20251;-89
2022/09/25 17:33:03;;;;;;;4.17;1.77;;;;;;;;;;5039878;28;20559;-86
2022/09/25 17:35:36;;;;;;;4.23;1.80;;;;;;;;;;5047301;28;20227;-86
2022/09/25 17:38:06;;;;;;;4.40;1.60;;;;;;;;;;5049047;28;20212;-87
2022/09/25 17:40:33;;;;;;;6.80;1.93;;;;;;;;;;5033736;28;20214;-87
2022/09/25 17:43:02;;;;;;;9.30;2.57;;;;;;;;;;5047926;28;20200;-87
2022/09/25 17:45:33;;;;;;;9.13;2.20;;;;;;;;;;5052159;28;20223;-88
2022/09/25 17:50:47;;;;;;;10.20;3.57;;;;;;;;;;5045907;28;20264;-87
2022/09/25 17:53:17;;;;;;;11.63;4.27;;;;;;;;;;5046566;28;20223;-88
2022/09/25 17:55:48;;;;;;;6.33;2.20;;;;;;;;;;5047603;28;20222;-86
2022/09/25 17:58:16;;;;;;;6.80;3.10;;;;;;;;;;5044731;28;20218;-90
2022/09/25 18:00:44;;;;;;;5.40;2.50;;;;;;;;;;5052197;28;20238;-87
2022/09/25 18:06:04;;;;;;;6.83;3.00;;;;;;;;;;5044501;28;20245;-87
2022/09/25 18:08:31;;;;;;;10.93;3.37;;;;;;;;;;5044595;28;20653;-86
2022/09/25 18:11:02;;;;;;;7.80;3.00;;;;;;;;;;5046870;28;20302;-89
2022/09/25 18:13:43;;;;;;;4.77;3.00;;;;;;;;;;5042347;28;20250;-91
2022/09/25 18:16:15;;;;;;;6.33;3.30;;;;;;;;;;5044807;28;20234;-90
2022/09/25 18:24:14;;;;;;;5.53;2.83;;;;;;;;;;5040751;28;20209;-86
2022/09/25 18:26:59;;;;;;;5.33;2.70;;;;;;;;;;5043179;28;20206;-86
2022/09/25 18:29:51;;;;;;;12.50;3.77;;;;;;;;;;5047261;28;21782;-86
2022/09/25 18:32:18;;;;;;;12.00;5.30;;;;;;;;;;5039364;28;20204;-86
2022/09/25 18:34:58;;;;;;;11.73;4.33;;;;;;;;;;5040187;28;20633;-86
2022/09/25 18:37:29;;;;;;;9.67;3.50;;;;;;;;;;5037646;28;20219;-87
2022/09/25 18:40:09;;;;;;;16.57;6.77;;;;;;;;;;5039788;28;20344;-87
2022/09/25 18:42:36;;;;;;;18.83;8.10;;;;;;;;;;5037230;28;20206;-88
2022/09/25 18:45:06;;;;;;;14.00;5.37;;;;;;;;;;5039126;28;20226;-86
2022/09/25 18:47:34;;;;;;;10.83;4.80;;;;;;;;;;5034559;28;20203;-86
2022/09/25 18:50:04;;;;;;;13.53;4.90;;;;;;;;;;5037571;28;20211;-86
2022/09/25 18:52:34;;;;;;;11.27;3.83;;;;;;;;;;5039543;28;20211;-87
2022/09/25 18:55:03;;;;;;;23.03;7.90;;;;;;;;;;5039378;28;20223;-85
2022/09/25 18:57:31;;;;;;;16.43;6.00;;;;;;;;;;5041899;28;20264;-87
2022/09/25 19:00:00;;;;;;;14.17;6.67;;;;;;;;;;5036871;28;20207;-86
2022/09/25 19:02:29;;;;;;;20.47;8.30;;;;;;;;;;5036799;28;20207;-88
2022/09/25 19:04:57;;;;;;;24.10;11.40;;;;;;;;;;5037072;28;20548;-88
2022/09/25 19:07:25;;;;;;;24.00;9.90;;;;;;;;;;5037945;28;20209;-81
2022/09/25 19:09:57;;;;;;;18.80;8.07;;;;;;;;;;5035106;28;20210;-85
2022/09/25 19:12:24;;;;;;;14.13;6.00;;;;;;;;;;5033405;28;20365;-86
2022/09/25 19:14:52;;;;;;;10.47;4.70;;;;;;;;;;5032779;28;20230;-87
2022/09/25 19:17:20;;;;;;;13.37;6.00;;;;;;;;;;5033619;28;20581;-86
2022/09/25 19:19:50;;;;;;;11.83;5.70;;;;;;;;;;5032638;28;20214;-85
2022/09/25 19:22:18;;;;;;;15.73;7.03;;;;;;;;;;5032158;28;20206;-87
2022/09/25 19:24:45;;;;;;;14.70;7.03;;;;;;;;;;5039268;28;20214;-86
2022/09/25 19:27:16;;;;;;;12.03;6.37;;;;;;;;;;5034949;28;20258;-87
2022/09/25 19:29:44;;;;;;;13.60;6.80;;;;;;;;;;5034133;28;20250;-86
2022/09/25 19:32:12;;;;;;;11.70;6.30;;;;;;;;;;5039064;28;20591;-89
2022/09/25 19:34:40;;;;;;;8.03;4.20;;;;;;;;;;5033359;28;20245;-88
2022/09/25 19:37:09;;;;;;;8.47;5.20;;;;;;;;;;5034908;28;20245;-89
2022/09/25 19:42:19;;;;;;;11.33;5.17;;;;;;;;;;5037357;28;20203;-87
2022/09/25 19:44:47;;;;;;;13.93;7.37;;;;;;;;;;5032129;28;20227;-89
2022/09/25 19:47:14;;;;;;;12.10;6.60;;;;;;;;;;5038696;28;20779;-86
2022/09/25 19:49:42;;;;;;;12.77;6.10;;;;;;;;;;5033115;28;20294;-86
2022/09/25 19:52:10;;;;;;;10.67;5.57;;;;;;;;;;5036130;28;20207;-87
2022/09/25 19:54:38;;;;;;;11.70;6.23;;;;;;;;;;5037556;28;20305;-87
2022/09/25 19:57:06;;;;;;;15.57;8.47;;;;;;;;;;5038126;28;20666;-86
2022/09/25 19:59:36;;;;;;;35.47;17.37;;;;;;;;;;5018945;28;20433;-84
2022/09/25 20:02:05;;;;;;;14.13;7.37;;;;;;;;;;5032966;28;20257;-86
2022/09/25 20:04:32;;;;;;;16.63;5.70;;;;;;;;;;5034983;28;20238;-86
2022/09/25 20:06:59;;;;;;;11.87;5.13;;;;;;;;;;5036907;28;20293;-84
2022/09/25 20:09:27;;;;;;;13.23;4.40;;;;;;;;;;5035899;28;20207;-86
2022/09/25 20:11:54;;;;;;;10.20;5.40;;;;;;;;;;5036438;28;20207;-85
2022/09/25 20:14:24;;;;;;;7.87;4.37;;;;;;;;;;5036806;28;20216;-86
2022/09/25 20:16:53;;;;;;;11.80;5.10;;;;;;;;;;5033494;28;20735;-86
2022/09/25 20:19:21;;;;;;;15.60;5.27;;;;;;;;;;5036339;28;20227;-86
2022/09/25 20:21:51;;;;;;;11.27;5.40;;;;;;;;;;5031917;28;20231;-85
2022/09/25 20:24:20;;;;;;;11.50;5.33;;;;;;;;;;5037311;28;20245;-85
2022/09/25 20:26:48;;;;;;;10.27;5.20;;;;;;;;;;5035143;28;20295;-85
2022/09/25 20:29:18;;;;;;;12.90;5.60;;;;;;;;;;5039736;28;20200;-84
2022/09/25 20:31:46;;;;;;;11.73;4.73;;;;;;;;;;5039229;28;20266;-85
2022/09/25 20:34:16;;;;;;;8.47;4.87;;;;;;;;;;5037601;28;20226;-88
2022/09/25 20:36:43;;;;;;;10.30;4.70;;;;;;;;;;5038934;28;20200;-86
2022/09/25 20:39:11;;;;;;;9.37;4.63;;;;;;;;;;5034874;28;20200;-86
2022/09/25 20:41:39;;;;;;;9.80;5.20;;;;;;;;;;5034308;28;20199;-86
2022/09/25 20:44:15;;;;;;;7.87;4.30;;;;;;;;;;5039080;28;20200;-87
2022/09/25 20:46:44;;;;;;;9.83;5.13;;;;;;;;;;5031933;28;20205;-87
2022/09/25 20:52:03;;;;;;;10.83;5.43;;;;;;;;;;5037643;28;20287;-82
2022/09/25 20:54:33;;;;;;;12.97;5.53;;;;;;;;;;5038991;28;20301;-82
2022/09/25 20:57:00;;;;;;;12.50;5.50;;;;;;;;;;5038041;28;20290;-82
2022/09/25 20:59:28;;;;;;;7.67;4.73;;;;;;;;;;5043038;28;20210;-84
2022/09/25 21:01:57;;;;;;;10.43;5.53;;;;;;;;;;5041155;28;20206;-85
2022/09/25 21:04:26;;;;;;;12.87;5.30;;;;;;;;;;5042126;28;20206;-84
2022/09/25 21:06:55;;;;;;;12.10;5.23;;;;;;;;;;5040175;28;20653;-80
2022/09/25 21:09:24;;;;;;;11.03;5.73;;;;;;;;;;5041633;28;20203;-82
2022/09/25 21:11:51;;;;;;;13.47;5.97;;;;;;;;;;5040224;28;20234;-82
2022/09/25 21:14:19;;;;;;;39.67;16.07;;;;;;;;;;5041412;28;20218;-81
2022/09/25 21:16:50;;;;;;;12.50;6.67;;;;;;;;;;5037662;28;20208;-81
2022/09/25 21:19:21;;;;;;;13.63;5.47;;;;;;;;;;5043677;28;20211;-82
2022/09/25 21:21:49;;;;;;;10.57;5.17;;;;;;;;;;5039555;28;20287;-81
2022/09/25 21:24:20;;;;;;;12.80;6.10;;;;;;;;;;5043818;28;20286;-81
2022/09/25 21:26:48;;;;;;;10.63;4.90;;;;;;;;;;5044290;28;20199;-82
2022/09/25 21:29:17;;;;;;;11.40;5.07;;;;;;;;;;5044099;28;20647;-81
2022/09/25 21:31:45;;;;;;;11.23;5.13;;;;;;;;;;5043931;28;20282;-81
2022/09/25 21:34:15;;;;;;;20.30;5.87;;;;;;;;;;5047201;28;20275;-81
2022/09/25 21:36:43;;;;;;;9.63;5.07;;;;;;;;;;5046220;28;20218;-81
2022/09/25 21:39:13;;;;;;;12.07;4.70;;;;;;;;;;5043946;28;20665;-81
2022/09/25 21:41:43;;;;;;;9.97;5.47;;;;;;;;;;5041965;28;20204;-81
2022/09/25 21:44:15;;;;;;;12.53;5.30;;;;;;;;;;5043303;28;20218;-83
2022/09/25 21:46:42;;;;;;;16.20;5.07;;;;;;;;;;5041603;28;20275;-81
2022/09/25 21:49:19;;;;;;;10.93;5.57;;;;;;;;;;5042365;28;20213;-82
2022/09/25 21:51:48;;;;;;;10.67;5.20;;;;;;;;;;5040218;28;20210;-80
2022/09/25 21:54:16;;;;;;;9.87;5.50;;;;;;;;;;5043377;28;20223;-80
2022/09/25 21:56:48;;;;;;;10.97;6.50;;;;;;;;;;5041073;28;20302;-79
2022/09/25 21:59:15;;;;;;;18.23;5.57;;;;;;;;;;5037551;28;20211;-82
2022/09/25 22:01:43;;;;;;;10.73;5.60;;;;;;;;;;5044378;28;20195;-81
2022/09/25 22:04:19;;;;;;;13.70;5.17;;;;;;;;;;5036771;28;20576;-82
2022/09/25 22:06:48;;;;;;;10.17;5.07;;;;;;;;;;5038539;28;20206;-81
2022/09/25 22:09:17;;;;;;;15.57;5.73;;;;;;;;;;5043131;28;20218;-80
2022/09/25 22:11:47;;;;;;;22.93;5.37;;;;;;;;;;5045181;28;20211;-81
2022/09/25 22:14:16;;;;;;;9.07;4.90;;;;;;;;;;5038073;28;20697;-81
2022/09/25 22:16:46;;;;;;;10.50;5.20;;;;;;;;;;5044949;28;20203;-81
2022/09/25 22:19:14;;;;;;;8.83;4.90;;;;;;;;;;5040960;28;20207;-80
2022/09/25 22:21:45;;;;;;;10.23;4.40;;;;;;;;;;5042269;28;20285;-80
2022/09/25 22:24:12;;;;;;;9.53;5.10;;;;;;;;;;5040444;28;20203;-80
2022/09/25 22:26:43;;;;;;;14.20;5.10;;;;;;;;;;5038824;28;20206;-81
2022/09/25 22:29:12;;;;;;;10.83;4.67;;;;;;;;;;5036888;28;20745;-80
2022/09/25 22:31:43;;;;;;;11.57;5.03;;;;;;;;;;5039958;28;20204;-82
2022/09/25 22:36:47;;;;;;;11.80;4.80;;;;;;;;;;5107736;23;20230;-81
2022/09/25 22:39:16;;;;;;;10.27;5.00;;;;;;;;;;5008521;28;20209;-80
2022/09/25 22:41:44;;;;;;;13.53;5.00;;;;;;;;;;5001957;28;20204;-81
2022/09/25 22:44:23;;;;;;;13.27;4.53;;;;;;;;;;5005480;28;20668;-80
2022/09/25 22:46:50;;;;;;;12.40;4.90;;;;;;;;;;4981542;28;20224;-80
2022/09/25 22:49:21;;;;;;;11.13;4.60;;;;;;;;;;4986669;28;20208;-80
2022/09/25 22:51:58;;;;;;;10.70;4.77;;;;;;;;;;4982038;28;20204;-82
2022/09/25 22:54:26;;;;;;;7.30;4.43;;;;;;;;;;4984644;28;20231;-81
2022/09/25 22:56:53;;;;;;;13.07;4.97;;;;;;;;;;4982760;28;20244;-82
2022/09/25 22:59:22;;;;;;;10.60;4.50;;;;;;;;;;4987457;28;20209;-82
2022/09/25 23:04:36;;;;;;;7.33;4.20;;;;;;;;;;4985379;28;20217;-81
2022/09/25 23:07:03;;;;;;;10.20;4.70;;;;;;;;;;4984178;28;20213;-81
2022/09/25 23:09:31;;;;;;;9.57;4.93;;;;;;;;;;4985575;28;20235;-81
2022/09/25 23:11:58;;;;;;;12.60;5.17;;;;;;;;;;4988081;28;20237;-81
2022/09/25 23:14:41;;;;;;;10.33;4.60;;;;;;;;;;4981354;28;20233;-81
2022/09/25 23:17:13;;;;;;;9.77;4.60;;;;;;;;;;4983813;28;20204;-82
2022/09/25 23:19:40;;;;;;;10.97;4.50;;;;;;;;;;4978946;28;20205;-82
2022/09/25 23:22:08;;;;;;;9.60;4.23;;;;;;;;;;4983158;28;20224;-81
2022/09/25 23:24:37;;;;;;;8.33;4.30;;;;;;;;;;4986471;28;20217;-82
2022/09/25 23:27:04;;;;;;;8.90;4.43;;;;;;;;;;4984685;28;20204;-80
2022/09/25 23:29:32;;;;;;;18.37;4.87;;;;;;;;;;4985082;28;20213;-81
2022/09/25 23:31:59;;;;;;;11.77;4.23;;;;;;;;;;4984331;28;20217;-81
2022/09/25 23:34:28;;;;;;;12.83;4.60;;;;;;;;;;4984921;28;20225;-82
2022/09/25 23:36:55;;;;;;;6.67;4.30;;;;;;;;;;4981577;28;20209;-81
2022/09/25 23:39:23;;;;;;;10.73;4.17;;;;;;;;;;4989179;28;20203;-81
2022/09/25 23:41:51;;;;;;;9.27;5.07;;;;;;;;;;4980794;28;20284;-81
2022/09/25 23:44:18;;;;;;;10.10;4.47;;;;;;;;;;4985559;28;20204;-81
2022/09/25 23:46:45;;;;;;;8.23;4.00;;;;;;;;;;4980935;28;20202;-82
2022/09/25 23:49:13;;;;;;;10.67;4.37;;;;;;;;;;4988121;28;20198;-81
2022/09/25 23:51:42;;;;;;;12.03;4.60;;;;;;;;;;4990184;28;20725;-81
2022/09/25 23:54:11;;;;;;;8.53;4.73;;;;;;;;;;4987395;28;20208;-81
2022/09/25 23:56:39;;;;;;;9.37;4.27;;;;;;;;;;4986087;28;20655;-81
2022/09/25 23:59:08;;;;;;;8.27;4.30;;;;;;;;;;4977001;28;20216;-79
